createdAt,value
2022-09-23T00:05:32.773Z,8.71
2022-09-23T00:15:40.688Z,8.28
2022-09-23T00:25:44.363Z,8.33
2022-09-23T00:35:50.108Z,8.13
2022-09-23T00:45:54.845Z,8.53
2022-09-23T00:56:04.773Z,8.04
2022-09-23T01:06:09.292Z,8.20
2022-09-23T01:16:23.277Z,8.40
2022-09-23T01:26:49.845Z,8.30
2022-09-23T01:37:00.220Z,8.23
2022-09-23T01:47:10.959Z,7.94
2022-09-23T01:57:20.406Z,7.83
2022-09-23T02:07:30.351Z,7.84
2022-09-23T02:17:40.610Z,8.30
2022-09-23T02:27:56.306Z,8.00
2022-09-23T02:38:18.326Z,7.72
2022-09-23T02:48:26.311Z,7.77
2022-09-23T02:58:31.428Z,7.62
2022-09-23T03:08:50.398Z,7.39
2022-09-23T03:19:05.561Z,7.43
2022-09-23T03:29:11.400Z,7.37
2022-09-23T03:39:29.564Z,7.26
2022-09-23T03:49:39.175Z,7.18
2022-09-23T03:59:44.307Z,7.17
2022-09-23T04:09:47.927Z,7.15
2022-09-23T04:19:53.001Z,7.33
2022-09-23T04:29:56.579Z,7.41
2022-09-23T04:40:01.864Z,7.48
2022-09-23T04:50:06.561Z,7.38
2022-09-23T05:00:15.314Z,7.18
2022-09-23T05:10:19.373Z,7.22
2022-09-23T05:20:24.400Z,7.38
2022-09-23T05:30:28.548Z,7.67
2022-09-23T05:40:33.618Z,7.76
2022-09-23T05:50:37.710Z,7.97
2022-09-23T06:00:44.256Z,8.39
2022-09-23T06:10:53.510Z,8.71
2022-09-23T06:21:05.379Z,8.92
2022-09-23T06:31:13.602Z,9.73
2022-09-23T06:41:21.210Z,10.07
2022-09-23T06:51:24.858Z,10.24
2022-09-23T07:01:29.898Z,10.17
2022-09-23T07:11:33.735Z,10.71
2022-09-23T07:21:38.800Z,10.77
2022-09-23T07:31:42.587Z,10.84
2022-09-23T07:41:48.090Z,11.07
2022-09-23T07:51:52.743Z,11.15
2022-09-23T08:02:00.672Z,11.42
2022-09-23T08:12:04.887Z,11.43
2022-09-23T08:22:09.934Z,11.82
2022-09-23T08:32:13.546Z,12.26
2022-09-23T08:42:24.664Z,12.39
2022-09-23T08:52:35.804Z,12.80
2022-09-23T09:02:41.232Z,13.05
2022-09-23T09:12:47.572Z,13.50
2022-09-23T09:22:57.405Z,13.89
2022-09-23T09:33:05.038Z,14.30
2022-09-23T09:43:23.128Z,14.55
2022-09-23T09:53:30.410Z,14.50
2022-09-23T10:03:40.833Z,14.88
2022-09-23T10:14:05.086Z,14.95
2022-09-23T10:24:22.912Z,15.19
2022-09-23T10:34:28.888Z,15.42
2022-09-23T10:44:58.432Z,15.81
2022-09-23T10:55:18.906Z,16.04
2022-09-23T11:05:39.998Z,16.22
2022-09-23T11:15:55.683Z,16.60
2022-09-23T11:26:20.940Z,16.91
2022-09-23T11:36:32.641Z,17.12
2022-09-23T11:46:42.477Z,17.61
2022-09-23T11:56:49.339Z,17.61
2022-09-23T12:07:01.246Z,18.02
2022-09-23T12:17:26.883Z,18.72
2022-09-23T12:27:38.927Z,18.87
2022-09-23T12:37:43.273Z,18.79
2022-09-23T12:47:48.213Z,18.73
2022-09-23T12:57:51.928Z,19.08
2022-09-23T13:08:04.517Z,19.36
2022-09-23T13:18:41.263Z,19.73
2022-09-23T13:28:57.212Z,19.88
2022-09-23T13:39:16.322Z,19.53
2022-09-23T13:49:25.361Z,19.45
2022-09-23T13:59:31.722Z,19.34
2022-09-23T14:09:42.323Z,19.52
2022-09-23T14:19:46.610Z,19.30
2022-09-23T14:29:51.878Z,19.31
2022-09-23T14:39:57.890Z,18.94
2022-09-23T14:50:20.045Z,19.34
2022-09-23T15:00:23.856Z,19.41
2022-09-23T15:10:33.918Z,18.95
2022-09-23T15:20:37.855Z,19.05
2022-09-23T15:30:42.949Z,18.69
2022-09-23T15:40:46.801Z,18.33
2022-09-23T15:50:55.340Z,18.18
2022-09-23T16:00:59.827Z,18.00
2022-09-23T16:11:06.070Z,17.91
2022-09-23T16:21:12.441Z,17.75
2022-09-23T16:31:17.774Z,17.37
2022-09-23T16:41:21.615Z,17.06
2022-09-23T16:51:29.438Z,16.68
2022-09-23T17:01:51.042Z,16.28
2022-09-23T17:12:04.342Z,15.83
2022-09-23T17:22:08.109Z,15.58
2022-09-23T17:32:13.130Z,15.43
2022-09-23T17:42:18.130Z,14.97
2022-09-23T17:52:23.120Z,14.68
2022-09-23T18:02:27.118Z,14.95
2022-09-23T18:12:32.104Z,14.43
2022-09-23T18:22:35.775Z,14.39
2022-09-23T18:32:40.956Z,14.18
2022-09-23T18:42:44.622Z,13.98
2022-09-23T18:52:49.825Z,13.76
2022-09-23T19:02:53.785Z,13.61
2022-09-23T19:12:59.064Z,13.65
2022-09-23T19:23:02.756Z,13.28
2022-09-23T19:33:09.905Z,13.15
2022-09-23T19:43:14.267Z,13.07
2022-09-23T19:53:19.401Z,13.04
2022-09-23T20:03:23.060Z,12.94
2022-09-23T20:13:32.503Z,12.89
2022-09-23T20:23:36.166Z,12.78
2022-09-23T20:33:42.192Z,12.56
2022-09-23T20:43:45.811Z,12.41
2022-09-23T20:53:52.721Z,12.08
2022-09-23T21:03:56.744Z,12.08
2022-09-23T21:14:02.143Z,12.04
2022-09-23T21:24:40.050Z,12.18
2022-09-23T21:34:34.466Z,12.22
2022-09-23T21:44:38.076Z,11.84
2022-09-23T21:54:43.080Z,11.75
2022-09-23T22:04:46.833Z,11.48
2022-09-23T22:14:52.186Z,11.43
2022-09-23T22:24:55.853Z,11.41
2022-09-23T22:35:00.807Z,11.49
2022-09-23T22:45:06.253Z,11.48
2022-09-23T22:55:12.576Z,11.50
2022-09-23T23:05:16.440Z,11.51
2022-09-23T23:15:21.391Z,11.54
2022-09-23T23:25:25.334Z,11.68
2022-09-23T23:35:30.299Z,11.51
2022-09-23T23:45:33.937Z,11.53
2022-09-23T23:55:40.125Z,11.57
